Time;durP1;ratioP1;P1;durP2;ratioP2;P2;SDS_P1;SDS_P2;PMS_P1;PMS_P2;Temp;Humidity;BMP_temperature;BMP_pressure;BME280_temperature;BME280_humidity;BME280_pressure;Samples;Min_cycle;Max_cycle;Signal;HPM_P1;HPM_P2
2022/01/13 00:00:12;;;;;;;945.55;890.75;;;;;;;4.21;71.43;103161.75;691249;28;23311;-68
2022/01/13 00:00:33;;;;;;;933.55;879.47;;;;;;;4.20;71.37;103169.84;688883;28;92151;-68
2022/01/13 00:00:54;;;;;;;953.28;897.97;;;;;;;4.19;71.81;103171.69;691677;28;22372;-68
2022/01/13 00:01:18;;;;;;;959.70;903.97;;;;;;;4.18;71.40;103161.06;689217;28;21528;-69
2022/01/13 00:01:42;;;;;;;957.90;902.15;;;;;;;4.19;71.71;103165.47;683690;28;93489;-68
2022/01/13 00:02:05;;;;;;;947.25;892.25;;;;;;;4.21;71.62;103167.09;684750;28;69192;-68
2022/01/13 00:02:30;;;;;;;954.25;898.85;;;;;;;4.22;71.31;103165.31;684613;28;69213;-68
2022/01/13 00:02:52;;;;;;;950.90;895.72;;;;;;;4.23;71.35;103175.06;682350;28;138129;-68
2022/01/13 00:03:13;;;;;;;946.45;891.55;;;;;;;4.24;71.38;103166.97;682279;28;46303;-69
2022/01/13 00:03:35;;;;;;;942.58;887.88;;;;;;;4.24;71.29;103163.44;683866;28;22244;-68
2022/01/13 00:03:56;;;;;;;957.17;901.63;;;;;;;4.26;71.05;103169.56;683764;28;22421;-68
2022/01/13 00:04:18;;;;;;;960.80;904.90;;;;;;;4.24;71.19;103164.28;682891;28;21310;-69
2022/01/13 00:04:40;;;;;;;955.58;900.05;;;;;;;4.25;71.29;103162.50;682827;28;44140;-69
2022/01/13 00:05:01;;;;;;;955.78;900.25;;;;;;;4.24;71.36;103163.44;684461;28;46310;-69
2022/01/13 00:05:27;;;;;;;972.83;916.15;;;;;;;4.24;71.36;103158.94;683606;28;46371;-69
2022/01/13 00:05:48;;;;;;;967.35;911.13;;;;;;;4.25;71.48;103165.16;679321;28;136505;-69
2022/01/13 00:06:10;;;;;;;955.20;899.70;;;;;;;4.27;71.16;103160.59;683473;28;23230;-69
2022/01/13 00:06:31;;;;;;;918.33;865.25;;;;;;;4.27;71.04;103156.09;682829;28;68356;-69
2022/01/13 00:06:52;;;;;;;921.05;867.75;;;;;;;4.29;71.37;103150.69;682840;28;44455;-68
2022/01/13 00:07:15;;;;;;;926.25;872.63;;;;;;;4.29;71.41;103153.34;684941;28;23474;-69
2022/01/13 00:07:36;;;;;;;917.95;864.83;;;;;;;4.30;71.17;103155.09;685142;28;44434;-68
2022/01/13 00:07:58;;;;;;;909.85;857.20;;;;;;;4.31;71.10;103151.47;686249;28;21515;-69
2022/01/13 00:08:19;;;;;;;917.92;864.90;;;;;;;4.31;71.22;103152.34;685294;28;46249;-68
2022/01/13 00:08:40;;;;;;;925.08;871.60;;;;;;;4.31;71.27;103156.81;685622;28;22233;-69
2022/01/13 00:09:03;;;;;;;917.75;864.47;;;;;;;4.31;71.50;103149.66;687487;28;22268;-69
2022/01/13 00:09:24;;;;;;;914.85;861.67;;;;;;;4.31;71.21;103149.66;684605;28;69293;-69
2022/01/13 00:09:45;;;;;;;939.10;884.50;;;;;;;4.30;71.51;103147.06;685562;28;22389;-69
2022/01/13 00:10:08;;;;;;;936.45;882.15;;;;;;;4.30;71.37;103147.94;687035;28;21389;-69
2022/01/13 00:10:30;;;;;;;923.13;869.67;;;;;;;4.29;71.43;103150.69;685334;28;92808;-69
2022/01/13 00:10:51;;;;;;;912.50;859.78;;;;;;;4.29;71.61;103148.00;688748;28;23434;-69
2022/01/13 00:11:12;;;;;;;933.03;878.97;;;;;;;4.28;72.08;103151.66;688815;28;21506;-69
2022/01/13 00:11:34;;;;;;;936.92;882.67;;;;;;;4.28;71.50;103144.47;688858;28;21896;-69
2022/01/13 00:11:56;;;;;;;929.35;875.55;;;;;;;4.26;71.76;103151.72;684460;28;46464;-69
2022/01/13 00:12:20;;;;;;;921.60;868.35;;;;;;;4.27;71.61;103149.91;683569;28;67228;-69
2022/01/13 00:12:44;;;;;;;924.97;871.47;;;;;;;4.27;71.13;103150.75;682236;28;89222;-69
2022/01/13 00:13:07;;;;;;;938.17;883.85;;;;;;;4.27;71.44;103150.75;683095;28;69464;-69
2022/01/13 00:13:35;;;;;;;935.92;881.83;;;;;;;4.27;71.33;103147.22;682981;28;69506;-69
2022/01/13 00:14:21;;;;;;;921.28;867.97;;;;;;;4.24;71.43;103148.22;679811;28;137795;-69
2022/01/13 00:14:57;;;;;;;952.30;897.13;;;;;;;4.28;71.24;103151.66;681168;28;160736;-68
2022/01/13 00:15:25;;;;;;;958.70;903.08;;;;;;;4.27;71.37;103152.56;680935;28;137473;-68
2022/01/13 00:15:49;;;;;;;962.53;906.55;;;;;;;4.31;71.25;103154.13;684589;28;60949;-68
2022/01/13 00:16:25;;;;;;;998.78;940.42;;;;;;;4.29;71.24;103154.22;684348;28;69073;-68
2022/01/13 00:17:09;;;;;;;1021.78;961.80;;;;;;;4.29;71.56;103153.34;681109;28;135760;-69
2022/01/13 00:17:44;;;;;;;1004.33;945.60;;;;;;;4.26;71.54;103154.41;682057;28;138004;-68
2022/01/13 00:18:11;;;;;;;1028.70;968.05;;;;;;;4.27;71.45;103144.56;682196;28;136005;-69
2022/01/13 00:18:39;;;;;;;1005.45;946.75;;;;;;;4.27;71.67;103145.41;681581;28;159253;-69
2022/01/13 00:19:06;;;;;;;999.28;940.90;;;;;;;4.26;71.60;103142.81;681097;28;159177;-69
2022/01/13 00:19:34;;;;;;;1013.53;954.03;;;;;;;4.26;71.64;103154.41;682122;28;137921;-69
2022/01/13 00:20:11;;;;;;;1014.10;954.65;;;;;;;4.28;71.52;103148.97;681946;28;137835;-69
2022/01/13 00:21:10;;;;;;;1032.03;971.33;;;;;;;4.30;71.48;103147.06;679035;28;158058;-69
2022/01/13 00:21:35;;;;;;;1000.90;942.42;;;;;;;4.29;71.32;103143.50;679229;28;138133;-69
2022/01/13 00:21:59;;;;;;;998.25;939.90;;;;;;;4.29;71.63;103148.00;680974;28;138209;-69
2022/01/13 00:22:27;;;;;;;997.47;939.15;;;;;;;4.29;71.56;103145.31;683981;28;92311;-68
2022/01/13 00:23:38;;;;;;;919.63;866.50;;;;;;;4.27;71.89;103141.88;684621;28;137980;-68
2022/01/13 00:23:41;;;;;;;1032.30;971.38;;;;;;;4.28;71.55;103140.94;684691;28;136005;-69
2022/01/13 00:24:05;;;;;;;1014.05;954.55;;;;;;;4.30;71.39;103139.03;681606;28;137732;-69
2022/01/13 00:24:26;;;;;;;1006.75;947.80;;;;;;;4.27;71.42;103131.19;684419;28;69402;-69
2022/01/13 00:24:52;;;;;;;997.20;938.95;;;;;;;4.26;71.52;103133.00;685158;28;22389;-68
2022/01/13 00:25:15;;;;;;;999.88;941.38;;;;;;;4.28;71.31;103130.25;681840;28;136772;-68
2022/01/13 00:25:36;;;;;;;990.78;932.97;;;;;;;4.26;71.41;103132.09;684490;28;68442;-68
2022/01/13 00:26:01;;;;;;;981.72;924.50;;;;;;;4.26;71.69;103129.44;685344;28;43918;-68
2022/01/13 00:26:24;;;;;;;1019.03;958.95;;;;;;;4.24;71.65;103131.31;685279;28;113482;-68
2022/01/13 00:26:47;;;;;;;1027.72;967.10;;;;;;;4.23;71.63;103133.16;686251;28;69434;-68
2022/01/13 00:27:12;;;;;;;1018.83;958.88;;;;;;;4.24;72.00;103132.19;687143;28;45033;-68
2022/01/13 00:27:38;;;;;;;1008.88;949.78;;;;;;;4.24;71.83;103131.31;685071;28;138375;-68
2022/01/13 00:28:01;;;;;;;986.20;928.60;;;;;;;4.26;71.79;103127.66;685237;28;114972;-69
2022/01/13 00:28:23;;;;;;;1001.25;942.65;;;;;;;4.28;71.64;103130.25;683692;28;92284;-68
2022/01/13 00:28:47;;;;;;;1018.10;958.35;;;;;;;4.26;71.90;103133.00;685263;28;23391;-68
2022/01/13 00:29:09;;;;;;;1040.90;979.08;;;;;;;4.26;71.55;103132.09;683375;28;113568;-69
2022/01/13 00:29:31;;;;;;;1040.88;978.97;;;;;;;4.26;71.85;103130.31;684087;28;45063;-69
2022/01/13 00:29:55;;;;;;;1038.40;976.90;;;;;;;4.25;71.66;103130.41;686237;28;22376;-69
2022/01/13 00:30:18;;;;;;;1040.75;979.10;;;;;;;4.23;71.82;103125.13;680874;28;115100;-69
2022/01/13 00:30:39;;;;;;;1017.83;957.95;;;;;;;4.23;71.97;103127.78;684017;28;47019;-68
2022/01/13 00:31:04;;;;;;;1011.88;952.60;;;;;;;4.26;71.72;103129.44;685400;28;46399;-69
2022/01/13 00:31:30;;;;;;;1040.32;978.90;;;;;;;4.28;71.71;103127.56;682756;28;113827;-69
2022/01/13 00:31:51;;;;;;;1048.25;986.15;;;;;;;4.28;71.49;103131.09;681308;28;137966;-68
2022/01/13 00:32:14;;;;;;;1035.88;974.78;;;;;;;4.28;71.78;103124.88;686163;28;22388;-69
2022/01/13 00:32:35;;;;;;;1024.18;963.92;;;;;;;4.27;71.56;103131.19;685498;28;46344;-69
2022/01/13 00:32:57;;;;;;;1018.72;959.00;;;;;;;4.27;71.58;103117.81;686184;28;22415;-68
2022/01/13 00:33:23;;;;;;;1021.40;961.47;;;;;;;4.29;71.56;103123.94;684862;28;68402;-69
2022/01/13 00:33:46;;;;;;;1032.47;971.55;;;;;;;4.29;71.84;103126.59;682158;28;160790;-69
2022/01/13 00:34:08;;;;;;;1033.03;972.10;;;;;;;4.26;71.79;103118.72;683755;28;90090;-69
2022/01/13 00:34:30;;;;;;;1022.60;962.50;;;;;;;4.27;71.54;103121.34;686380;28;22387;-69
2022/01/13 00:34:51;;;;;;;1014.42;954.85;;;;;;;4.28;71.50;103125.75;685395;28;46402;-69
2022/01/13 00:35:12;;;;;;;1025.00;964.70;;;;;;;4.29;71.34;103126.59;685779;28;23402;-69
2022/01/13 00:35:33;;;;;;;1016.90;957.17;;;;;;;4.28;71.39;103125.75;685792;28;22396;-69
2022/01/13 00:35:57;;;;;;;1010.60;951.35;;;;;;;4.27;71.71;103125.81;685945;28;21514;-69
2022/01/13 00:36:19;;;;;;;1016.90;957.20;;;;;;;4.27;71.56;103118.66;683885;28;92969;-69
2022/01/13 00:36:41;;;;;;;1019.25;959.47;;;;;;;4.30;71.29;103126.53;685118;28;44376;-69
2022/01/13 00:37:03;;;;;;;1009.95;950.72;;;;;;;4.29;71.46;103127.47;684467;28;46337;-69
2022/01/13 00:37:24;;;;;;;1026.78;966.28;;;;;;;4.29;71.55;103122.09;683970;28;46367;-69
2022/01/13 00:37:46;;;;;;;1043.32;981.55;;;;;;;4.30;71.58;103115.81;685529;28;23636;-69
2022/01/13 00:38:07;;;;;;;1039.22;977.83;;;;;;;4.30;71.72;103115.81;685225;28;44381;-69
2022/01/13 00:38:29;;;;;;;1031.68;970.83;;;;;;;4.29;72.04;103123.94;686337;28;22384;-69
2022/01/13 00:38:51;;;;;;;1026.60;966.15;;;;;;;4.26;72.05;103119.63;684348;28;69419;-69
2022/01/13 00:39:14;;;;;;;1020.83;960.70;;;;;;;4.31;71.60;103127.38;685048;28;23442;-69
2022/01/13 00:39:35;;;;;;;1030.70;969.95;;;;;;;4.31;71.73;103116.69;684907;28;69273;-69
2022/01/13 00:39:56;;;;;;;1028.80;968.33;;;;;;;4.30;71.87;103117.66;684307;28;46456;-69
2022/01/13 00:40:17;;;;;;;1035.18;974.03;;;;;;;4.30;71.90;103128.34;685320;28;21339;-68
2022/01/13 00:40:38;;;;;;;1043.03;981.20;;;;;;;4.29;72.07;103127.47;686409;28;22325;-69
2022/01/13 00:41:00;;;;;;;1029.30;968.50;;;;;;;4.29;72.06;103122.09;686141;28;21536;-68
2022/01/13 00:41:23;;;;;;;1022.50;962.38;;;;;;;4.28;72.00;103123.06;685235;28;45254;-69
2022/01/13 00:41:44;;;;;;;1016.53;956.90;;;;;;;4.31;71.81;103122.91;684701;28;46386;-69
2022/01/13 00:42:05;;;;;;;1025.00;964.83;;;;;;;4.32;71.92;103129.97;685164;28;23308;-69
2022/01/13 00:42:26;;;;;;;1014.10;954.55;;;;;;;4.33;71.91;103123.69;685304;28;45053;-69
2022/01/13 00:42:50;;;;;;;1009.83;950.72;;;;;;;4.35;71.67;103117.41;686022;28;22676;-69
2022/01/13 00:43:11;;;;;;;1006.38;947.47;;;;;;;4.38;71.52;103125.28;684168;28;69042;-69
2022/01/13 00:43:36;;;;;;;1027.50;966.97;;;;;;;4.38;71.46;103118.13;686367;28;23723;-69
2022/01/13 00:44:01;;;;;;;1030.40;969.47;;;;;;;4.40;71.56;103123.38;683141;28;115022;-69
2022/01/13 00:44:22;;;;;;;1025.50;965.05;;;;;;;4.40;71.63;103112.69;681930;28;137943;-69
2022/01/13 00:44:48;;;;;;;1025.80;965.40;;;;;;;4.42;71.60;103117.03;686317;28;23455;-68
2022/01/13 00:45:14;;;;;;;1032.65;971.80;;;;;;;4.44;71.34;103114.28;685119;28;115106;-69
2022/01/13 00:45:36;;;;;;;1042.90;981.20;;;;;;;4.45;71.63;103124.00;684778;28;136409;-69
2022/01/13 00:45:57;;;;;;;1037.47;976.20;;;;;;;4.42;71.68;103117.03;684403;28;46490;-69
2022/01/13 00:46:21;;;;;;;1034.03;973.10;;;;;;;4.40;71.79;103116.22;685868;28;22304;-68
2022/01/13 00:46:44;;;;;;;1042.40;980.55;;;;;;;4.39;71.79;103116.28;682450;28;115201;-69
2022/01/13 00:47:09;;;;;;;1043.05;980.95;;;;;;;4.40;71.94;103110.00;682094;28;69277;-69
2022/01/13 00:47:30;;;;;;;1050.60;988.05;;;;;;;4.40;72.00;103115.34;680317;28;114951;-68
2022/01/13 00:47:51;;;;;;;1051.95;989.25;;;;;;;4.39;71.66;103114.50;680777;28;46348;-69
2022/01/13 00:48:12;;;;;;;1056.32;993.05;;;;;;;4.40;71.99;103112.69;683116;28;22408;-69
2022/01/13 00:48:35;;;;;;;1052.78;989.97;;;;;;;4.40;71.93;103118.03;683622;28;22396;-69
2022/01/13 00:48:56;;;;;;;1051.63;989.13;;;;;;;4.41;71.86;103114.44;682094;28;44373;-69
2022/01/13 00:49:17;;;;;;;1045.75;983.55;;;;;;;4.42;71.66;103116.13;682788;28;22403;-69
2022/01/13 00:49:38;;;;;;;1041.55;979.72;;;;;;;4.40;71.80;103115.34;683959;28;21537;-68
2022/01/13 00:50:00;;;;;;;1049.38;986.65;;;;;;;4.42;71.54;103114.34;685497;28;46296;-69
2022/01/13 00:50:21;;;;;;;1051.97;989.22;;;;;;;4.42;71.54;103116.13;684532;28;23816;-69
2022/01/13 00:50:42;;;;;;;1049.28;986.90;;;;;;;4.44;71.69;103112.44;685564;28;45010;-69
2022/01/13 00:51:04;;;;;;;1051.32;988.58;;;;;;;4.44;71.33;103111.59;686597;28;23495;-69
2022/01/13 00:51:25;;;;;;;1062.95;999.17;;;;;;;4.45;71.11;103122.22;685261;28;45234;-69
2022/01/13 00:51:47;;;;;;;1062.43;998.92;;;;;;;4.45;71.76;103111.53;684978;28;23461;-69
2022/01/13 00:52:08;;;;;;;1057.95;994.85;;;;;;;4.44;71.50;103114.28;686222;28;23436;-69
2022/01/13 00:52:29;;;;;;;1046.57;984.17;;;;;;;4.42;71.76;103121.50;686453;28;22458;-69
2022/01/13 00:52:51;;;;;;;1049.13;986.17;;;;;;;4.45;71.53;103115.97;686097;28;22396;-69
2022/01/13 00:53:12;;;;;;;1053.72;990.55;;;;;;;4.44;71.78;103108.91;685098;28;45299;-69
2022/01/13 00:53:33;;;;;;;1052.65;989.75;;;;;;;4.46;71.77;103115.06;686524;28;21646;-68
2022/01/13 00:53:55;;;;;;;1050.22;987.58;;;;;;;4.44;71.91;103117.81;686149;28;22566;-68
2022/01/13 00:54:17;;;;;;;1061.65;998.35;;;;;;;4.44;71.86;103111.59;685183;28;45338;-69
2022/01/13 00:54:40;;;;;;;1078.93;999.90;;;;;;;4.44;72.05;103112.44;685475;28;45248;-69
2022/01/13 00:55:05;;;;;;;1064.35;999.35;;;;;;;4.44;72.02;103116.94;684159;28;90673;-69
2022/01/13 00:55:33;;;;;;;1064.50;999.38;;;;;;;4.45;71.77;103118.66;682385;28;113347;-69
2022/01/13 00:56:01;;;;;;;1058.72;994.28;;;;;;;4.45;71.91;103110.63;682308;28;138129;-69
2022/01/13 00:56:22;;;;;;;1062.78;997.88;;;;;;;4.46;71.83;103115.91;684916;28;63170;-68
2022/01/13 00:56:43;;;;;;;1063.70;998.75;;;;;;;4.45;71.59;103115.97;685891;28;23498;-68
2022/01/13 00:57:05;;;;;;;1065.55;999.90;;;;;;;4.46;71.63;103115.06;685300;28;46362;-69
2022/01/13 00:57:28;;;;;;;1063.43;998.08;;;;;;;4.48;71.55;103107.78;685959;28;23471;-69
2022/01/13 00:57:50;;;;;;;1067.82;999.90;;;;;;;4.46;71.61;103112.38;684178;28;69401;-69
2022/01/13 00:58:11;;;;;;;1067.47;999.90;;;;;;;4.44;71.70;103112.44;685312;28;46199;-68
2022/01/13 00:58:34;;;;;;;1069.72;999.90;;;;;;;4.44;71.94;103114.28;685525;28;45313;-68
2022/01/13 00:58:56;;;;;;;1065.65;998.88;;;;;;;4.42;72.19;103109.00;684897;28;69263;-68
2022/01/13 00:59:17;;;;;;;1063.82;997.30;;;;;;;4.43;71.97;103104.50;684808;28;45240;-68
2022/01/13 00:59:38;;;;;;;1068.88;999.90;;;;;;;4.43;72.08;103105.34;686119;28;23109;-68
2022/01/13 01:00:00;;;;;;;1067.70;999.90;;;;;;;4.43;71.96;103108.03;686325;28;23483;-69
2022/01/13 01:00:22;;;;;;;1070.15;999.90;;;;;;;4.45;71.72;103099.94;685403;28;23534;-69
2022/01/13 01:00:43;;;;;;;1064.20;999.53;;;;;;;4.50;71.56;103105.94;685786;28;45348;-68
2022/01/13 01:01:06;;;;;;;1059.22;994.83;;;;;;;4.50;71.67;103100.56;686524;28;22415;-68
2022/01/13 01:01:27;;;;;;;1056.22;992.70;;;;;;;4.49;71.65;103104.19;684764;28;68362;-69
2022/01/13 01:01:52;;;;;;;1034.05;972.65;;;;;;;4.48;71.66;103092.63;685108;28;23490;-68
2022/01/13 01:02:13;;;;;;;972.22;915.75;;;;;;;4.48;71.88;103095.31;682078;28;138177;-69
2022/01/13 01:02:34;;;;;;;954.70;899.38;;;;;;;4.47;71.61;103092.72;686751;28;23397;-68
2022/01/13 01:02:56;;;;;;;969.55;913.20;;;;;;;4.48;71.87;103089.06;686548;28;23431;-69
2022/01/13 01:03:18;;;;;;;966.05;909.88;;;;;;;4.48;71.79;103095.31;685893;28;21538;-68
2022/01/13 01:03:39;;;;;;;952.72;897.40;;;;;;;4.46;71.85;103085.63;682999;28;44384;-68
2022/01/13 01:04:00;;;;;;;940.83;886.20;;;;;;;4.50;71.65;103100.56;683619;28;22168;-69
2022/01/13 01:04:23;;;;;;;942.63;887.67;;;;;;;4.50;71.68;103084.53;682115;28;44448;-69
2022/01/13 01:04:45;;;;;;;943.17;888.38;;;;;;;4.50;71.75;103090.72;681669;28;67450;-68
2022/01/13 01:05:07;;;;;;;928.45;874.63;;;;;;;4.48;71.78;103095.31;682949;28;46300;-68
2022/01/13 01:05:28;;;;;;;916.03;863.03;;;;;;;4.52;71.51;103093.31;683786;28;44355;-69
2022/01/13 01:05:49;;;;;;;908.80;856.28;;;;;;;4.50;71.57;103090.72;686197;28;22390;-69
2022/01/13 01:06:11;;;;;;;923.03;869.58;;;;;;;4.50;71.84;103085.38;686003;28;21511;-68
2022/01/13 01:06:33;;;;;;;930.08;876.22;;;;;;;4.49;71.63;103091.66;685506;28;46094;-69
2022/01/13 01:06:54;;;;;;;908.28;855.80;;;;;;;4.50;71.81;103089.88;685091;28;22443;-68
2022/01/13 01:07:15;;;;;;;899.58;847.67;;;;;;;4.49;71.64;103090.81;685007;28;46310;-69
2022/01/13 01:07:38;;;;;;;876.88;826.35;;;;;;;4.49;71.98;103094.34;686349;28;22396;-68
2022/01/13 01:07:59;;;;;;;858.42;808.95;;;;;;;4.47;72.10;103092.72;682257;28;44374;-69
2022/01/13 01:08:21;;;;;;;930.45;876.38;;;;;;;4.45;71.88;103094.56;683019;28;22583;-68
2022/01/13 01:08:43;;;;;;;947.35;892.22;;;;;;;4.47;71.74;103098.06;682756;28;45005;-69
2022/01/13 01:09:06;;;;;;;941.20;886.50;;;;;;;4.48;71.91;103097.97;684269;28;65029;-68
2022/01/13 01:09:39;;;;;;;929.88;875.88;;;;;;;4.47;71.92;103098.91;685428;28;44525;-69
2022/01/13 01:10:02;;;;;;;894.58;842.97;;;;;;;4.47;71.59;103100.72;682079;28;137265;-68
2022/01/13 01:10:24;;;;;;;912.40;859.70;;;;;;;4.47;71.94;103088.22;682141;28;88234;-69
2022/01/13 01:10:48;;;;;;;925.25;871.70;;;;;;;4.48;71.66;103095.31;683968;28;69425;-69
2022/01/13 01:11:09;;;;;;;905.90;853.58;;;;;;;4.47;71.73;103100.72;681725;28;68321;-68
2022/01/13 01:11:30;;;;;;;898.47;846.70;;;;;;;4.46;72.16;103099.00;683848;28;23328;-69
2022/01/13 01:11:55;;;;;;;879.22;828.63;;;;;;;4.45;72.05;103099.94;681645;28;45266;-69
2022/01/13 01:12:17;;;;;;;873.15;822.85;;;;;;;4.45;71.83;103105.28;680549;28;90719;-69
2022/01/13 01:12:38;;;;;;;888.95;837.65;;;;;;;4.46;71.62;103099.84;682741;28;45259;-68
2022/01/13 01:13:10;;;;;;;887.38;836.28;;;;;;;4.43;71.71;103100.00;682853;28;46320;-68
2022/01/13 01:13:34;;;;;;;855.60;806.50;;;;;;;4.43;72.18;103104.50;680062;28;137723;-68
2022/01/13 01:13:56;;;;;;;883.92;833.10;;;;;;;4.41;72.03;103098.38;682094;28;72553;-68
2022/01/13 01:14:18;;;;;;;882.45;831.65;;;;;;;4.44;71.68;103103.56;682349;28;46181;-68
2022/01/13 01:14:45;;;;;;;865.97;816.13;;;;;;;4.46;71.92;103104.34;683064;28;46182;-69
2022/01/13 01:15:08;;;;;;;854.92;805.83;;;;;;;4.46;71.52;103105.19;679807;28;136269;-69
2022/01/13 01:15:30;;;;;;;876.75;826.30;;;;;;;4.46;71.77;103099.00;682308;28;67489;-69
2022/01/13 01:15:54;;;;;;;867.88;817.97;;;;;;;4.45;72.02;103110.63;683781;28;23417;-68
2022/01/13 01:16:18;;;;;;;838.53;790.42;;;;;;;4.45;71.98;103107.94;681187;28;93508;-69
2022/01/13 01:16:39;;;;;;;827.53;780.13;;;;;;;4.43;72.02;103110.72;680732;28;92201;-69
2022/01/13 01:17:00;;;;;;;826.42;779.03;;;;;;;4.43;72.00;103108.03;683585;28;22419;-69
2022/01/13 01:17:21;;;;;;;842.00;793.70;;;;;;;4.45;72.14;103111.53;680505;29;21518;-69
2022/01/13 01:17:48;;;;;;;830.28;782.67;;;;;;;4.44;72.22;103120.47;680957;28;21566;-69
2022/01/13 01:18:22;;;;;;;816.00;769.25;;;;;;;4.45;72.35;103114.19;677147;28;139280;-68
2022/01/13 01:18:52;;;;;;;823.47;776.22;;;;;;;4.48;72.07;103115.81;676569;28;137705;-70
2022/01/13 01:19:15;;;;;;;819.38;772.38;;;;;;;4.48;72.16;103113.16;677562;28;137553;-68
2022/01/13 01:19:37;;;;;;;814.50;767.72;;;;;;;4.46;72.25;103113.22;682863;28;44545;-70
2022/01/13 01:20:00;;;;;;;802.92;756.80;;;;;;;4.49;71.97;103106.88;681959;28;69399;-71
2022/01/13 01:20:29;;;;;;;816.00;769.25;;;;;;;4.48;71.96;103115.81;681695;28;69423;-69
2022/01/13 01:21:04;;;;;;;827.92;780.30;;;;;;;4.46;72.23;103099.84;679587;28;137824;-70
2022/01/13 01:21:51;;;;;;;807.05;760.90;;;;;;;4.46;72.30;103105.19;679620;28;137748;-70
2022/01/13 01:22:39;;;;;;;810.70;764.30;;;;;;;4.48;72.42;103097.09;678449;28;157385;-69
2022/01/13 01:23:10;;;;;;;782.17;737.55;;;;;;;4.47;72.16;103106.94;679820;28;136132;-69
2022/01/13 01:23:35;;;;;;;810.47;764.13;;;;;;;4.47;71.90;103101.59;680050;28;135413;-69
2022/01/13 01:25:48;;;;;;;803.03;756.85;;;;;;;4.51;71.78;103104.97;679436;28;137769;-70
2022/01/13 01:26:23;;;;;;;818.17;771.42;;;;;;;4.50;71.83;103104.09;679260;28;137551;-69
2022/01/13 01:26:47;;;;;;;845.63;797.05;;;;;;;4.50;72.11;103108.59;676311;28;136024;-70
2022/01/13 01:27:17;;;;;;;837.05;789.03;;;;;;;4.50;72.11;103106.78;679091;28;90483;-69
2022/01/13 01:27:43;;;;;;;826.95;779.45;;;;;;;4.54;71.87;103109.31;677561;28;136170;-69
2022/01/13 01:28:13;;;;;;;865.33;815.38;;;;;;;4.53;72.12;103105.78;676874;28;137773;-69
2022/01/13 01:28:43;;;;;;;848.70;799.88;;;;;;;4.51;71.95;103108.53;677388;28;159223;-69
2022/01/13 01:29:14;;;;;;;835.30;787.27;;;;;;;4.51;72.04;103111.19;678221;28;160892;-70
2022/01/13 01:29:39;;;;;;;808.97;762.63;;;;;;;4.51;71.95;103111.19;679775;28;137634;-69
2022/01/13 01:30:07;;;;;;;838.10;790.00;;;;;;;4.49;72.12;103110.41;677011;28;137798;-70
2022/01/13 01:30:35;;;;;;;826.95;779.58;;;;;;;4.50;71.89;103105.94;676951;28;136192;-70
2022/01/13 01:30:56;;;;;;;833.50;785.63;;;;;;;4.48;72.40;103111.34;679431;28;79367;-69
2022/01/13 01:31:23;;;;;;;849.88;800.97;;;;;;;4.48;72.35;103110.47;680759;29;23503;-69
2022/01/13 01:31:47;;;;;;;844.35;795.78;;;;;;;4.48;72.61;103113.16;676686;28;138416;-70
2022/01/13 01:32:14;;;;;;;835.00;787.03;;;;;;;4.47;72.25;103108.75;680569;28;114801;-69
2022/01/13 01:32:38;;;;;;;845.65;796.97;;;;;;;4.47;72.32;103112.28;679945;28;138087;-69
2022/01/13 01:32:59;;;;;;;859.88;810.38;;;;;;;4.46;72.32;103110.56;682472;28;69356;-70
2022/01/13 01:33:20;;;;;;;855.25;806.08;;;;;;;4.48;72.28;103114.03;683430;28;23450;-69
2022/01/13 01:33:52;;;;;;;849.40;800.65;;;;;;;4.50;72.05;103108.59;684227;28;21589;-69
2022/01/13 01:34:24;;;;;;;871.55;821.35;;;;;;;4.51;71.97;103110.31;679287;28;137606;-69
2022/01/13 01:34:54;;;;;;;874.40;824.05;;;;;;;4.50;71.95;103108.59;679256;28;138012;-69
2022/01/13 01:35:18;;;;;;;887.13;836.05;;;;;;;4.54;71.60;103110.16;679133;28;138674;-70
2022/01/13 01:35:39;;;;;;;915.13;862.22;;;;;;;4.57;71.81;103109.16;681298;28;67480;-70
2022/01/13 01:36:00;;;;;;;901.50;849.42;;;;;;;4.58;71.76;103097.50;682840;28;46376;-70
2022/01/13 01:36:21;;;;;;;889.97;838.63;;;;;;;4.54;72.09;103099.44;683673;28;23414;-69
2022/01/13 01:36:43;;;;;;;885.53;834.45;;;;;;;4.54;71.82;103098.59;683116;28;21326;-70
2022/01/13 01:37:13;;;;;;;901.63;849.60;;;;;;;4.54;72.03;103096.78;683496;28;22378;-70
2022/01/13 01:37:34;;;;;;;917.72;864.47;;;;;;;4.51;71.95;103092.47;679972;28;137446;-70
2022/01/13 01:37:56;;;;;;;854.45;805.13;;;;;;;4.54;71.96;103096.78;685414;28;22407;-70
2022/01/13 01:38:21;;;;;;;842.55;793.95;;;;;;;4.53;71.97;103097.75;685427;28;36365;-70
2022/01/13 01:38:47;;;;;;;863.05;813.08;;;;;;;4.52;72.09;103101.34;684907;28;71064;-70
2022/01/13 01:39:09;;;;;;;872.05;821.65;;;;;;;4.54;72.08;103093.25;681774;28;115411;-70
2022/01/13 01:39:30;;;;;;;852.92;803.67;;;;;;;4.55;72.20;103097.66;685503;28;46384;-70
2022/01/13 01:39:52;;;;;;;845.85;797.15;;;;;;;4.55;71.95;103093.16;684493;28;22402;-70
2022/01/13 01:40:14;;;;;;;782.45;738.15;;;;;;;4.54;72.37;103093.25;682497;28;44365;-70
2022/01/13 01:40:35;;;;;;;771.65;727.92;;;;;;;4.54;72.17;103093.25;682610;28;47099;-70
2022/01/13 01:40:57;;;;;;;793.83;748.33;;;;;;;4.54;72.36;103098.59;683440;28;22410;-70
2022/01/13 01:41:18;;;;;;;837.53;789.35;;;;;;;4.53;72.47;103097.75;682254;28;45294;-69
2022/01/13 01:41:42;;;;;;;891.42;839.92;;;;;;;4.53;72.45;103096.84;682047;28;46148;-70
2022/01/13 01:42:04;;;;;;;875.50;825.03;;;;;;;4.54;72.30;103104.81;681772;28;93623;-70
2022/01/13 01:42:26;;;;;;;870.03;819.90;;;;;;;4.55;72.15;103101.19;683005;28;21642;-70
2022/01/13 01:42:48;;;;;;;884.50;833.45;;;;;;;4.55;72.15;103097.66;681497;28;69197;-70
2022/01/13 01:43:11;;;;;;;883.20;832.30;;;;;;;4.54;72.16;103096.78;682322;28;45276;-70
2022/01/13 01:43:32;;;;;;;917.17;864.08;;;;;;;4.56;72.19;103100.25;683027;28;46141;-70
2022/01/13 01:43:56;;;;;;;941.67;887.00;;;;;;;4.55;71.93;103100.34;683209;28;21538;-70
2022/01/13 01:44:24;;;;;;;930.85;876.95;;;;;;;4.56;71.93;103097.59;680143;28;115086;-70
2022/01/13 01:44:48;;;;;;;942.90;888.33;;;;;;;4.58;71.80;103094.81;678846;28;137938;-70
2022/01/13 01:45:10;;;;;;;939.00;884.67;;;;;;;4.58;71.76;103095.69;681788;28;69558;-70
2022/01/13 01:45:41;;;;;;;964.20;908.23;;;;;;;4.56;72.11;103092.22;682013;28;69376;-70
2022/01/13 01:46:02;;;;;;;959.08;903.42;;;;;;;4.56;72.06;103094.91;679663;28;137293;-70
2022/01/13 01:46:23;;;;;;;949.33;894.33;;;;;;;4.54;72.30;103091.44;683071;28;23340;-70
2022/01/13 01:46:46;;;;;;;970.22;913.78;;;;;;;4.54;72.12;103099.44;682055;28;22167;-70
2022/01/13 01:47:10;;;;;;;978.92;921.92;;;;;;;4.54;72.25;103093.25;681441;28;92104;-70
2022/01/13 01:47:32;;;;;;;963.92;907.92;;;;;;;4.55;72.18;103093.16;681662;28;69240;-70
2022/01/13 01:47:53;;;;;;;940.85;886.30;;;;;;;4.59;72.11;103091.19;682626;28;46310;-69
2022/01/13 01:48:19;;;;;;;928.05;874.35;;;;;;;4.56;71.92;103097.59;683102;28;22407;-70
2022/01/13 01:48:40;;;;;;;945.70;890.88;;;;;;;4.57;72.20;103096.63;679159;28;137789;-70
2022/01/13 01:49:04;;;;;;;954.08;898.72;;;;;;;4.56;72.36;103094.03;682335;28;23486;-70
2022/01/13 01:49:26;;;;;;;966.63;910.42;;;;;;;4.54;72.25;103088.75;681128;28;92189;-70
2022/01/13 01:49:49;;;;;;;916.13;863.20;;;;;;;4.53;72.36;103092.38;682308;28;46315;-70
2022/01/13 01:50:18;;;;;;;930.53;876.65;;;;;;;4.53;72.18;103105.78;681768;28;69368;-70